sensor_id;sensor_type;location;lat;lon;timestamp;temperature;humidity
26655;DHT22;14278;50.784;4.630;2022-12-17T00:00:49;-2.60;99.90
26655;DHT22;14278;50.784;4.630;2022-12-17T00:03:33;-2.30;99.90
26655;DHT22;14278;50.784;4.630;2022-12-17T00:06:18;-2.10;99.90
26655;DHT22;14278;50.784;4.630;2022-12-17T00:09:03;-2.30;99.90
26655;DHT22;14278;50.784;4.630;2022-12-17T00:11:48;-2.20;99.90
26655;DHT22;14278;50.784;4.630;2022-12-17T00:14:33;-2.00;99.90
26655;DHT22;14278;50.784;4.630;2022-12-17T00:17:18;-2.20;99.90
26655;DHT22;14278;50.784;4.630;2022-12-17T00:20:02;-2.20;99.90
26655;DHT22;14278;50.784;4.630;2022-12-17T00:22:46;-2.10;99.90
26655;DHT22;14278;50.784;4.630;2022-12-17T00:25:30;-2.40;99.90
26655;DHT22;14278;50.784;4.630;2022-12-17T00:28:15;-2.50;99.90
26655;DHT22;14278;50.784;4.630;2022-12-17T00:30:59;-2.60;99.90
26655;DHT22;14278;50.784;4.630;2022-12-17T00:33:45;-2.50;99.90
26655;DHT22;14278;50.784;4.630;2022-12-17T00:36:40;-2.00;99.90
26655;DHT22;14278;50.784;4.630;2022-12-17T00:39:25;-1.80;99.90
26655;DHT22;14278;50.784;4.630;2022-12-17T00:42:08;-2.10;99.90
26655;DHT22;14278;50.784;4.630;2022-12-17T00:44:53;-2.00;99.90
26655;DHT22;14278;50.784;4.630;2022-12-17T00:47:36;-2.20;99.90
26655;DHT22;14278;50.784;4.630;2022-12-17T00:50:21;-2.00;99.90
26655;DHT22;14278;50.784;4.630;2022-12-17T00:53:05;-1.90;99.90
26655;DHT22;14278;50.784;4.630;2022-12-17T00:55:50;-2.00;99.90
26655;DHT22;14278;50.784;4.630;2022-12-17T00:58:34;-2.50;99.90
26655;DHT22;14278;50.784;4.630;2022-12-17T01:01:18;-2.40;99.90
26655;DHT22;14278;50.784;4.630;2022-12-17T01:04:02;-2.30;99.90
26655;DHT22;14278;50.784;4.630;2022-12-17T01:06:46;-2.20;99.90
26655;DHT22;14278;50.784;4.630;2022-12-17T01:09:30;-2.40;99.90
26655;DHT22;14278;50.784;4.630;2022-12-17T01:12:15;-2.50;99.90
26655;DHT22;14278;50.784;4.630;2022-12-17T01:14:59;-2.60;99.90
26655;DHT22;14278;50.784;4.630;2022-12-17T01:17:43;-2.60;99.90
26655;DHT22;14278;50.784;4.630;2022-12-17T01:20:27;-2.30;99.90
26655;DHT22;14278;50.784;4.630;2022-12-17T01:23:13;-1.90;99.90
26655;DHT22;14278;50.784;4.630;2022-12-17T01:25:57;-1.80;99.90
26655;DHT22;14278;50.784;4.630;2022-12-17T01:28:41;-1.80;99.90
26655;DHT22;14278;50.784;4.630;2022-12-17T01:31:26;-1.80;99.90
26655;DHT22;14278;50.784;4.630;2022-12-17T01:34:11;-1.90;99.90
26655;DHT22;14278;50.784;4.630;2022-12-17T01:36:55;-1.80;99.90
26655;DHT22;14278;50.784;4.630;2022-12-17T01:39:39;-2.00;99.90
26655;DHT22;14278;50.784;4.630;2022-12-17T01:42:23;-1.90;99.90
26655;DHT22;14278;50.784;4.630;2022-12-17T01:45:12;-1.90;99.90
26655;DHT22;14278;50.784;4.630;2022-12-17T01:48:00;-2.10;99.90
26655;DHT22;14278;50.784;4.630;2022-12-17T01:50:51;-2.10;99.90
26655;DHT22;14278;50.784;4.630;2022-12-17T01:53:39;-2.10;99.90
26655;DHT22;14278;50.784;4.630;2022-12-17T01:56:25;-2.10;99.90
26655;DHT22;14278;50.784;4.630;2022-12-17T01:59:11;-2.20;99.90
26655;DHT22;14278;50.784;4.630;2022-12-17T02:01:55;-2.20;99.90
26655;DHT22;14278;50.784;4.630;2022-12-17T02:04:39;-2.70;99.90
26655;DHT22;14278;50.784;4.630;2022-12-17T02:07:52;-3.20;99.90
26655;DHT22;14278;50.784;4.630;2022-12-17T02:14:00;-3.30;99.90
26655;DHT22;14278;50.784;4.630;2022-12-17T02:16:52;-3.40;99.90
26655;DHT22;14278;50.784;4.630;2022-12-17T02:26:08;-2.60;99.90
26655;DHT22;14278;50.784;4.630;2022-12-17T02:28:55;-3.00;99.90
26655;DHT22;14278;50.784;4.630;2022-12-17T02:31:58;-3.00;99.90
26655;DHT22;14278;50.784;4.630;2022-12-17T02:34:46;-3.00;99.90
26655;DHT22;14278;50.784;4.630;2022-12-17T02:37:31;-3.10;99.90
26655;DHT22;14278;50.784;4.630;2022-12-17T02:40:18;-3.10;99.90
26655;DHT22;14278;50.784;4.630;2022-12-17T02:43:03;-3.00;99.90
26655;DHT22;14278;50.784;4.630;2022-12-17T02:45:49;-2.90;99.90
26655;DHT22;14278;50.784;4.630;2022-12-17T02:48:34;-2.90;99.90
26655;DHT22;14278;50.784;4.630;2022-12-17T02:51:18;-2.90;99.90
26655;DHT22;14278;50.784;4.630;2022-12-17T02:54:03;-2.60;99.90
26655;DHT22;14278;50.784;4.630;2022-12-17T02:56:48;-2.50;99.90
26655;DHT22;14278;50.784;4.630;2022-12-17T02:59:32;-2.60;99.90
26655;DHT22;14278;50.784;4.630;2022-12-17T03:02:16;-2.70;99.90
26655;DHT22;14278;50.784;4.630;2022-12-17T03:05:01;-2.90;99.90
26655;DHT22;14278;50.784;4.630;2022-12-17T03:07:45;-3.00;99.90
26655;DHT22;14278;50.784;4.630;2022-12-17T03:10:30;-2.80;99.90
26655;DHT22;14278;50.784;4.630;2022-12-17T03:13:27;-2.50;99.90
26655;DHT22;14278;50.784;4.630;2022-12-17T03:16:14;-2.90;99.90
26655;DHT22;14278;50.784;4.630;2022-12-17T03:19:00;-3.20;99.90
26655;DHT22;14278;50.784;4.630;2022-12-17T03:21:45;-3.00;99.90
26655;DHT22;14278;50.784;4.630;2022-12-17T03:24:29;-2.60;99.90
26655;DHT22;14278;50.784;4.630;2022-12-17T03:27:14;-2.60;99.90
26655;DHT22;14278;50.784;4.630;2022-12-17T03:29:59;-2.90;99.90
26655;DHT22;14278;50.784;4.630;2022-12-17T03:32:43;-3.10;99.90
26655;DHT22;14278;50.784;4.630;2022-12-17T03:35:27;-3.20;99.90
26655;DHT22;14278;50.784;4.630;2022-12-17T03:38:12;-3.00;99.90
26655;DHT22;14278;50.784;4.630;2022-12-17T03:40:58;-2.60;99.90
26655;DHT22;14278;50.784;4.630;2022-12-17T03:43:42;-2.80;99.90
26655;DHT22;14278;50.784;4.630;2022-12-17T03:46:26;-3.20;99.90
26655;DHT22;14278;50.784;4.630;2022-12-17T03:49:11;-3.20;99.90
26655;DHT22;14278;50.784;4.630;2022-12-17T03:51:55;-3.40;99.90
26655;DHT22;14278;50.784;4.630;2022-12-17T03:54:40;-3.30;99.90
26655;DHT22;14278;50.784;4.630;2022-12-17T03:57:24;-3.50;99.90
26655;DHT22;14278;50.784;4.630;2022-12-17T04:00:09;-3.30;99.90
26655;DHT22;14278;50.784;4.630;2022-12-17T04:02:53;-3.10;99.90
26655;DHT22;14278;50.784;4.630;2022-12-17T04:05:38;-3.10;99.90
26655;DHT22;14278;50.784;4.630;2022-12-17T04:08:23;-3.10;99.90
26655;DHT22;14278;50.784;4.630;2022-12-17T04:11:07;-3.20;99.90
26655;DHT22;14278;50.784;4.630;2022-12-17T04:13:51;-3.00;99.90
26655;DHT22;14278;50.784;4.630;2022-12-17T04:16:36;-3.10;99.90
26655;DHT22;14278;50.784;4.630;2022-12-17T04:19:20;-3.50;99.90
26655;DHT22;14278;50.784;4.630;2022-12-17T04:22:04;-3.60;99.90
26655;DHT22;14278;50.784;4.630;2022-12-17T04:24:48;-3.60;99.90
26655;DHT22;14278;50.784;4.630;2022-12-17T04:27:33;-3.50;99.90
26655;DHT22;14278;50.784;4.630;2022-12-17T04:30:17;-3.60;99.90
26655;DHT22;14278;50.784;4.630;2022-12-17T04:33:01;-3.40;99.90
26655;DHT22;14278;50.784;4.630;2022-12-17T04:35:45;-3.00;99.90
26655;DHT22;14278;50.784;4.630;2022-12-17T04:38:30;-3.10;99.90
26655;DHT22;14278;50.784;4.630;2022-12-17T04:41:14;-2.90;99.90
26655;DHT22;14278;50.784;4.630;2022-12-17T04:43:58;-2.80;99.90
26655;DHT22;14278;50.784;4.630;2022-12-17T04:46:42;-2.80;99.90
26655;DHT22;14278;50.784;4.630;2022-12-17T04:49:27;-2.90;99.90
26655;DHT22;14278;50.784;4.630;2022-12-17T04:52:11;-3.00;99.90
26655;DHT22;14278;50.784;4.630;2022-12-17T04:54:55;-2.90;99.90
26655;DHT22;14278;50.784;4.630;2022-12-17T04:57:39;-3.00;99.90
26655;DHT22;14278;50.784;4.630;2022-12-17T05:00:24;-3.10;99.90
26655;DHT22;14278;50.784;4.630;2022-12-17T05:03:14;-3.20;99.90
26655;DHT22;14278;50.784;4.630;2022-12-17T05:06:00;-3.10;99.90
26655;DHT22;14278;50.784;4.630;2022-12-17T05:08:44;-3.00;99.90
26655;DHT22;14278;50.784;4.630;2022-12-17T05:11:29;-3.10;99.90
26655;DHT22;14278;50.784;4.630;2022-12-17T05:14:14;-3.40;99.90
26655;DHT22;14278;50.784;4.630;2022-12-17T05:16:58;-3.30;99.90
26655;DHT22;14278;50.784;4.630;2022-12-17T05:19:42;-3.20;99.90
26655;DHT22;14278;50.784;4.630;2022-12-17T05:22:27;-3.10;99.90
26655;DHT22;14278;50.784;4.630;2022-12-17T05:25:11;-2.90;99.90
26655;DHT22;14278;50.784;4.630;2022-12-17T05:27:55;-2.80;99.90
26655;DHT22;14278;50.784;4.630;2022-12-17T05:30:40;-3.10;99.90
26655;DHT22;14278;50.784;4.630;2022-12-17T05:33:25;-3.60;99.90
26655;DHT22;14278;50.784;4.630;2022-12-17T05:36:10;-3.80;99.90
26655;DHT22;14278;50.784;4.630;2022-12-17T05:38:54;-3.40;99.90
26655;DHT22;14278;50.784;4.630;2022-12-17T05:41:38;-3.40;99.90
26655;DHT22;14278;50.784;4.630;2022-12-17T05:44:23;-3.60;99.90
26655;DHT22;14278;50.784;4.630;2022-12-17T05:47:12;-3.70;99.90
26655;DHT22;14278;50.784;4.630;2022-12-17T05:49:56;-3.70;99.90
26655;DHT22;14278;50.784;4.630;2022-12-17T05:52:41;-4.00;99.90
26655;DHT22;14278;50.784;4.630;2022-12-17T05:55:25;-3.90;99.90
26655;DHT22;14278;50.784;4.630;2022-12-17T05:58:10;-3.80;99.90
26655;DHT22;14278;50.784;4.630;2022-12-17T06:00:56;-3.30;99.90
26655;DHT22;14278;50.784;4.630;2022-12-17T06:03:41;-3.20;99.90
26655;DHT22;14278;50.784;4.630;2022-12-17T06:06:26;-3.00;99.90
26655;DHT22;14278;50.784;4.630;2022-12-17T06:09:10;-3.00;99.90
26655;DHT22;14278;50.784;4.630;2022-12-17T06:11:54;-3.30;99.90
26655;DHT22;14278;50.784;4.630;2022-12-17T06:14:38;-3.80;99.90
26655;DHT22;14278;50.784;4.630;2022-12-17T06:17:23;-4.00;99.90
26655;DHT22;14278;50.784;4.630;2022-12-17T06:20:08;-4.10;99.90
26655;DHT22;14278;50.784;4.630;2022-12-17T06:22:59;-3.60;99.90
26655;DHT22;14278;50.784;4.630;2022-12-17T06:25:44;-3.20;99.90
26655;DHT22;14278;50.784;4.630;2022-12-17T06:28:28;-2.90;99.90
26655;DHT22;14278;50.784;4.630;2022-12-17T06:31:12;-3.00;99.90
26655;DHT22;14278;50.784;4.630;2022-12-17T06:33:57;-2.80;99.90
26655;DHT22;14278;50.784;4.630;2022-12-17T06:36:41;-2.70;99.90
26655;DHT22;14278;50.784;4.630;2022-12-17T06:39:26;-2.80;99.90
26655;DHT22;14278;50.784;4.630;2022-12-17T06:42:10;-3.00;99.90
26655;DHT22;14278;50.784;4.630;2022-12-17T06:44:54;-3.00;99.90
26655;DHT22;14278;50.784;4.630;2022-12-17T06:47:39;-3.20;99.90
26655;DHT22;14278;50.784;4.630;2022-12-17T06:50:23;-3.20;99.90
26655;DHT22;14278;50.784;4.630;2022-12-17T06:53:08;-3.00;99.90
26655;DHT22;14278;50.784;4.630;2022-12-17T06:55:56;-3.20;99.90
26655;DHT22;14278;50.784;4.630;2022-12-17T06:58:40;-3.20;99.90
26655;DHT22;14278;50.784;4.630;2022-12-17T07:01:26;-3.10;99.90
26655;DHT22;14278;50.784;4.630;2022-12-17T07:04:10;-3.00;99.90
26655;DHT22;14278;50.784;4.630;2022-12-17T07:06:54;-3.10;99.90
26655;DHT22;14278;50.784;4.630;2022-12-17T07:09:39;-3.20;99.90
26655;DHT22;14278;50.784;4.630;2022-12-17T07:12:24;-3.30;99.90
26655;DHT22;14278;50.784;4.630;2022-12-17T07:15:08;-3.40;99.90
26655;DHT22;14278;50.784;4.630;2022-12-17T07:18:00;-3.50;99.90
26655;DHT22;14278;50.784;4.630;2022-12-17T07:20:45;-3.40;99.90
26655;DHT22;14278;50.784;4.630;2022-12-17T07:23:30;-3.50;99.90
26655;DHT22;14278;50.784;4.630;2022-12-17T07:26:15;-3.50;99.90
26655;DHT22;14278;50.784;4.630;2022-12-17T07:28:59;-3.40;99.90
26655;DHT22;14278;50.784;4.630;2022-12-17T07:31:43;-3.20;99.90
26655;DHT22;14278;50.784;4.630;2022-12-17T07:34:28;-3.10;99.90
26655;DHT22;14278;50.784;4.630;2022-12-17T07:37:12;-3.10;99.90
26655;DHT22;14278;50.784;4.630;2022-12-17T07:39:56;-3.60;99.90
26655;DHT22;14278;50.784;4.630;2022-12-17T07:42:40;-3.80;99.90
26655;DHT22;14278;50.784;4.630;2022-12-17T07:45:25;-3.30;99.90
26655;DHT22;14278;50.784;4.630;2022-12-17T07:48:10;-3.30;99.90
26655;DHT22;14278;50.784;4.630;2022-12-17T07:50:54;-3.30;99.90
26655;DHT22;14278;50.784;4.630;2022-12-17T07:53:38;-3.10;99.90
26655;DHT22;14278;50.784;4.630;2022-12-17T07:56:23;-3.30;99.90
26655;DHT22;14278;50.784;4.630;2022-12-17T07:59:06;-3.20;99.90
26655;DHT22;14278;50.784;4.630;2022-12-17T08:01:50;-3.40;99.90
26655;DHT22;14278;50.784;4.630;2022-12-17T08:04:35;-3.70;99.90
26655;DHT22;14278;50.784;4.630;2022-12-17T08:07:19;-3.80;99.90
26655;DHT22;14278;50.784;4.630;2022-12-17T08:10:04;-3.80;99.90
26655;DHT22;14278;50.784;4.630;2022-12-17T08:13:00;-3.80;99.90
26655;DHT22;14278;50.784;4.630;2022-12-17T08:15:45;-3.80;99.90
26655;DHT22;14278;50.784;4.630;2022-12-17T08:18:30;-3.60;99.90
26655;DHT22;14278;50.784;4.630;2022-12-17T08:21:15;-3.40;99.90
26655;DHT22;14278;50.784;4.630;2022-12-17T08:23:59;-3.20;99.90
26655;DHT22;14278;50.784;4.630;2022-12-17T08:26:43;-3.10;99.90
26655;DHT22;14278;50.784;4.630;2022-12-17T08:29:28;-3.00;99.90
26655;DHT22;14278;50.784;4.630;2022-12-17T08:32:12;-2.90;99.90
26655;DHT22;14278;50.784;4.630;2022-12-17T08:34:56;-2.90;99.90
26655;DHT22;14278;50.784;4.630;2022-12-17T08:37:40;-2.60;99.90
26655;DHT22;14278;50.784;4.630;2022-12-17T08:40:25;-2.40;99.90
26655;DHT22;14278;50.784;4.630;2022-12-17T08:43:09;-2.20;99.90
26655;DHT22;14278;50.784;4.630;2022-12-17T08:45:53;-2.30;99.90
26655;DHT22;14278;50.784;4.630;2022-12-17T08:48:38;-2.20;99.90
26655;DHT22;14278;50.784;4.630;2022-12-17T08:51:23;-2.50;99.90
26655;DHT22;14278;50.784;4.630;2022-12-17T08:54:07;-2.50;99.90
26655;DHT22;14278;50.784;4.630;2022-12-17T08:56:51;-2.50;99.90
26655;DHT22;14278;50.784;4.630;2022-12-17T08:59:36;-2.50;99.90
26655;DHT22;14278;50.784;4.630;2022-12-17T09:02:20;-2.40;99.90
26655;DHT22;14278;50.784;4.630;2022-12-17T09:05:05;-2.20;99.90
26655;DHT22;14278;50.784;4.630;2022-12-17T09:07:57;-2.10;99.90
26655;DHT22;14278;50.784;4.630;2022-12-17T09:10:41;-2.10;99.90
26655;DHT22;14278;50.784;4.630;2022-12-17T09:13:26;-2.20;99.90
26655;DHT22;14278;50.784;4.630;2022-12-17T09:16:10;-2.10;99.90
26655;DHT22;14278;50.784;4.630;2022-12-17T09:18:54;-1.90;99.90
26655;DHT22;14278;50.784;4.630;2022-12-17T09:21:46;-1.70;99.90
26655;DHT22;14278;50.784;4.630;2022-12-17T09:24:31;-1.80;99.90
26655;DHT22;14278;50.784;4.630;2022-12-17T09:27:15;-1.80;99.90
26655;DHT22;14278;50.784;4.630;2022-12-17T09:29:59;-1.60;99.90
26655;DHT22;14278;50.784;4.630;2022-12-17T09:32:43;-1.50;99.90
26655;DHT22;14278;50.784;4.630;2022-12-17T09:35:28;-1.70;99.90
26655;DHT22;14278;50.784;4.630;2022-12-17T09:38:16;-1.60;99.90
26655;DHT22;14278;50.784;4.630;2022-12-17T09:44:07;-1.50;99.90
26655;DHT22;14278;50.784;4.630;2022-12-17T09:47:13;-1.30;99.90
26655;DHT22;14278;50.784;4.630;2022-12-17T09:50:02;-1.10;99.90
26655;DHT22;14278;50.784;4.630;2022-12-17T09:52:47;-1.00;99.90
26655;DHT22;14278;50.784;4.630;2022-12-17T09:55:52;-1.10;99.90
26655;DHT22;14278;50.784;4.630;2022-12-17T09:58:38;-1.00;99.90
26655;DHT22;14278;50.784;4.630;2022-12-17T10:01:26;-0.90;99.90
26655;DHT22;14278;50.784;4.630;2022-12-17T10:04:37;-0.90;99.90
26655;DHT22;14278;50.784;4.630;2022-12-17T10:07:23;-0.90;99.90
26655;DHT22;14278;50.784;4.630;2022-12-17T10:10:22;-0.80;99.90
26655;DHT22;14278;50.784;4.630;2022-12-17T10:13:11;-0.70;99.90
26655;DHT22;14278;50.784;4.630;2022-12-17T10:15:55;-0.60;99.90
26655;DHT22;14278;50.784;4.630;2022-12-17T10:18:39;-0.50;99.90
26655;DHT22;14278;50.784;4.630;2022-12-17T10:21:26;-0.40;99.90
26655;DHT22;14278;50.784;4.630;2022-12-17T10:24:10;-0.60;99.90
26655;DHT22;14278;50.784;4.630;2022-12-17T10:26:55;-0.70;99.90
26655;DHT22;14278;50.784;4.630;2022-12-17T10:29:40;-0.80;99.90
26655;DHT22;14278;50.784;4.630;2022-12-17T10:32:26;-0.60;99.90
26655;DHT22;14278;50.784;4.630;2022-12-17T10:38:10;-0.30;99.90
26655;DHT22;14278;50.784;4.630;2022-12-17T10:40:55;-0.10;99.90
26655;DHT22;14278;50.784;4.630;2022-12-17T10:43:40;-0.30;99.90
26655;DHT22;14278;50.784;4.630;2022-12-17T10:46:29;-0.40;99.90
26655;DHT22;14278;50.784;4.630;2022-12-17T10:49:21;-0.50;99.90
26655;DHT22;14278;50.784;4.630;2022-12-17T10:55:27;-0.40;99.90
26655;DHT22;14278;50.784;4.630;2022-12-17T10:58:35;-0.40;99.90
26655;DHT22;14278;50.784;4.630;2022-12-17T11:01:36;-0.30;99.90
26655;DHT22;14278;50.784;4.630;2022-12-17T11:04:30;-0.40;99.90
26655;DHT22;14278;50.784;4.630;2022-12-17T11:07:36;-0.30;99.90
26655;DHT22;14278;50.784;4.630;2022-12-17T11:10:33;0.00;99.90
26655;DHT22;14278;50.784;4.630;2022-12-17T11:13:40;0.10;99.90
26655;DHT22;14278;50.784;4.630;2022-12-17T11:16:37;0.10;99.90
26655;DHT22;14278;50.784;4.630;2022-12-17T11:19:46;0.10;99.90
26655;DHT22;14278;50.784;4.630;2022-12-17T11:22:49;0.20;99.90
26655;DHT22;14278;50.784;4.630;2022-12-17T11:25:55;0.10;99.90
26655;DHT22;14278;50.784;4.630;2022-12-17T11:28:40;-0.20;99.90
26655;DHT22;14278;50.784;4.630;2022-12-17T11:31:49;-0.40;99.90
26655;DHT22;14278;50.784;4.630;2022-12-17T11:38:08;-0.60;99.90
26655;DHT22;14278;50.784;4.630;2022-12-17T11:56:26;0.20;99.90
26655;DHT22;14278;50.784;4.630;2022-12-17T12:02:44;0.70;99.90
26655;DHT22;14278;50.784;4.630;2022-12-17T12:05:57;0.70;99.90
26655;DHT22;14278;50.784;4.630;2022-12-17T12:09:15;0.50;99.90
26655;DHT22;14278;50.784;4.630;2022-12-17T12:17:53;0.80;99.90
26655;DHT22;14278;50.784;4.630;2022-12-17T12:21:21;1.10;99.90
26655;DHT22;14278;50.784;4.630;2022-12-17T12:27:18;1.60;99.90
26655;DHT22;14278;50.784;4.630;2022-12-17T12:30:17;1.70;99.90
26655;DHT22;14278;50.784;4.630;2022-12-17T12:36:16;1.70;99.90
26655;DHT22;14278;50.784;4.630;2022-12-17T12:39:02;1.30;99.90
26655;DHT22;14278;50.784;4.630;2022-12-17T12:41:54;1.00;99.90
26655;DHT22;14278;50.784;4.630;2022-12-17T12:51:18;0.30;99.90
26655;DHT22;14278;50.784;4.630;2022-12-17T12:54:31;0.60;99.90
26655;DHT22;14278;50.784;4.630;2022-12-17T12:57:34;1.70;99.90
26655;DHT22;14278;50.784;4.630;2022-12-17T13:00:37;1.80;99.90
26655;DHT22;14278;50.784;4.630;2022-12-17T13:14:34;1.90;99.90
26655;DHT22;14278;50.784;4.630;2022-12-17T13:17:20;1.70;99.90
26655;DHT22;14278;50.784;4.630;2022-12-17T13:20:00;1.10;99.90
26655;DHT22;14278;50.784;4.630;2022-12-17T13:22:29;1.20;99.90
26655;DHT22;14278;50.784;4.630;2022-12-17T13:25:15;0.50;99.90
26655;DHT22;14278;50.784;4.630;2022-12-17T13:27:42;0.60;99.90
26655;DHT22;14278;50.784;4.630;2022-12-17T13:35:38;1.60;99.90
26655;DHT22;14278;50.784;4.630;2022-12-17T13:41:11;2.00;99.90
26655;DHT22;14278;50.784;4.630;2022-12-17T13:43:44;1.80;99.90
26655;DHT22;14278;50.784;4.630;2022-12-17T13:46:21;1.90;99.90
26655;DHT22;14278;50.784;4.630;2022-12-17T13:48:52;2.00;99.90
26655;DHT22;14278;50.784;4.630;2022-12-17T13:51:20;1.60;99.90
26655;DHT22;14278;50.784;4.630;2022-12-17T13:53:57;1.00;99.90
26655;DHT22;14278;50.784;4.630;2022-12-17T13:56:32;0.60;99.90
26655;DHT22;14278;50.784;4.630;2022-12-17T13:59:00;0.30;99.90
26655;DHT22;14278;50.784;4.630;2022-12-17T14:01:30;0.00;99.90
26655;DHT22;14278;50.784;4.630;2022-12-17T14:03:58;-0.20;99.90
26655;DHT22;14278;50.784;4.630;2022-12-17T14:06:42;-0.20;99.90
26655;DHT22;14278;50.784;4.630;2022-12-17T14:09:17;0.00;99.90
26655;DHT22;14278;50.784;4.630;2022-12-17T14:11:44;0.10;99.90
26655;DHT22;14278;50.784;4.630;2022-12-17T14:14:36;0.10;99.90
26655;DHT22;14278;50.784;4.630;2022-12-17T14:17:05;0.20;99.90
26655;DHT22;14278;50.784;4.630;2022-12-17T14:19:31;0.40;99.90
26655;DHT22;14278;50.784;4.630;2022-12-17T14:21:59;0.40;99.90
26655;DHT22;14278;50.784;4.630;2022-12-17T14:24:26;0.20;99.90
26655;DHT22;14278;50.784;4.630;2022-12-17T14:27:00;0.10;99.90
26655;DHT22;14278;50.784;4.630;2022-12-17T14:29:28;0.00;99.90
26655;DHT22;14278;50.784;4.630;2022-12-17T14:31:57;0.10;99.90
26655;DHT22;14278;50.784;4.630;2022-12-17T14:34:23;0.10;99.90
26655;DHT22;14278;50.784;4.630;2022-12-17T14:36:58;0.30;99.90
26655;DHT22;14278;50.784;4.630;2022-12-17T14:39:29;0.20;99.90
26655;DHT22;14278;50.784;4.630;2022-12-17T14:41:57;0.20;99.90
26655;DHT22;14278;50.784;4.630;2022-12-17T14:44:52;0.30;99.90
26655;DHT22;14278;50.784;4.630;2022-12-17T14:47:34;0.40;99.90
26655;DHT22;14278;50.784;4.630;2022-12-17T14:52:48;0.90;99.90
26655;DHT22;14278;50.784;4.630;2022-12-17T14:58:20;0.10;99.90
26655;DHT22;14278;50.784;4.630;2022-12-17T15:00:58;-0.10;99.90
26655;DHT22;14278;50.784;4.630;2022-12-17T15:03:32;0.00;99.90
26655;DHT22;14278;50.784;4.630;2022-12-17T15:06:04;-0.20;99.90
26655;DHT22;14278;50.784;4.630;2022-12-17T15:08:35;-0.20;99.90
26655;DHT22;14278;50.784;4.630;2022-12-17T15:11:02;-0.30;99.90
26655;DHT22;14278;50.784;4.630;2022-12-17T15:13:28;-0.40;99.90
26655;DHT22;14278;50.784;4.630;2022-12-17T15:15:54;-0.50;99.90
26655;DHT22;14278;50.784;4.630;2022-12-17T15:18:20;-0.10;99.90
26655;DHT22;14278;50.784;4.630;2022-12-17T15:20:46;0.20;99.90
26655;DHT22;14278;50.784;4.630;2022-12-17T15:23:16;0.20;99.90
26655;DHT22;14278;50.784;4.630;2022-12-17T15:25:43;0.10;99.90
26655;DHT22;14278;50.784;4.630;2022-12-17T15:28:10;-0.10;99.90
26655;DHT22;14278;50.784;4.630;2022-12-17T15:30:36;-0.20;99.90
26655;DHT22;14278;50.784;4.630;2022-12-17T15:33:05;-0.10;99.90
26655;DHT22;14278;50.784;4.630;2022-12-17T15:35:31;0.00;99.90
26655;DHT22;14278;50.784;4.630;2022-12-17T15:37:57;-0.30;99.90
26655;DHT22;14278;50.784;4.630;2022-12-17T15:40:23;-0.50;99.90
26655;DHT22;14278;50.784;4.630;2022-12-17T15:42:49;-0.50;99.90
26655;DHT22;14278;50.784;4.630;2022-12-17T15:45:33;-0.70;99.90
26655;DHT22;14278;50.784;4.630;2022-12-17T15:47:59;-0.70;99.90
26655;DHT22;14278;50.784;4.630;2022-12-17T15:50:24;-0.70;99.90
26655;DHT22;14278;50.784;4.630;2022-12-17T15:52:50;-0.80;99.90
26655;DHT22;14278;50.784;4.630;2022-12-17T15:55:16;-1.00;99.90
26655;DHT22;14278;50.784;4.630;2022-12-17T15:57:42;-1.20;99.90
26655;DHT22;14278;50.784;4.630;2022-12-17T16:00:08;-1.20;99.90
26655;DHT22;14278;50.784;4.630;2022-12-17T16:02:35;-1.40;99.90
26655;DHT22;14278;50.784;4.630;2022-12-17T16:05:01;-1.40;99.90
26655;DHT22;14278;50.784;4.630;2022-12-17T16:07:27;-1.50;99.90
26655;DHT22;14278;50.784;4.630;2022-12-17T16:09:52;-1.10;99.90
26655;DHT22;14278;50.784;4.630;2022-12-17T16:12:18;-0.70;99.90
26655;DHT22;14278;50.784;4.630;2022-12-17T16:14:44;-0.50;99.90
26655;DHT22;14278;50.784;4.630;2022-12-17T16:17:11;-0.30;99.90
26655;DHT22;14278;50.784;4.630;2022-12-17T16:19:36;-0.30;99.90
26655;DHT22;14278;50.784;4.630;2022-12-17T16:22:02;-0.50;99.90
26655;DHT22;14278;50.784;4.630;2022-12-17T16:24:28;-0.60;99.90
26655;DHT22;14278;50.784;4.630;2022-12-17T16:26:54;-0.50;99.90
26655;DHT22;14278;50.784;4.630;2022-12-17T16:29:19;-0.40;99.90
26655;DHT22;14278;50.784;4.630;2022-12-17T16:31:45;-0.30;99.90
26655;DHT22;14278;50.784;4.630;2022-12-17T16:34:12;-0.60;99.90
26655;DHT22;14278;50.784;4.630;2022-12-17T16:36:37;-0.90;99.90
26655;DHT22;14278;50.784;4.630;2022-12-17T16:39:04;-1.00;99.90
26655;DHT22;14278;50.784;4.630;2022-12-17T16:41:31;-0.90;99.90
26655;DHT22;14278;50.784;4.630;2022-12-17T16:43:56;-0.90;99.90
26655;DHT22;14278;50.784;4.630;2022-12-17T16:46:40;-0.80;99.90
26655;DHT22;14278;50.784;4.630;2022-12-17T16:49:11;-0.30;99.90
26655;DHT22;14278;50.784;4.630;2022-12-17T16:51:38;0.00;99.90
26655;DHT22;14278;50.784;4.630;2022-12-17T16:54:06;0.20;99.90
26655;DHT22;14278;50.784;4.630;2022-12-17T16:56:32;-0.10;99.90
26655;DHT22;14278;50.784;4.630;2022-12-17T16:59:00;-0.20;99.90
26655;DHT22;14278;50.784;4.630;2022-12-17T17:01:27;-0.30;99.90
26655;DHT22;14278;50.784;4.630;2022-12-17T17:03:54;-0.80;99.90
26655;DHT22;14278;50.784;4.630;2022-12-17T17:06:21;-0.60;99.90
26655;DHT22;14278;50.784;4.630;2022-12-17T17:08:47;-0.20;99.90
26655;DHT22;14278;50.784;4.630;2022-12-17T17:11:16;-0.20;99.90
26655;DHT22;14278;50.784;4.630;2022-12-17T17:13:44;-0.20;99.90
26655;DHT22;14278;50.784;4.630;2022-12-17T17:16:10;-0.30;99.90
26655;DHT22;14278;50.784;4.630;2022-12-17T17:18:37;-0.40;99.90
26655;DHT22;14278;50.784;4.630;2022-12-17T17:23:48;-0.40;99.90
26655;DHT22;14278;50.784;4.630;2022-12-17T17:26:15;-0.20;99.90
26655;DHT22;14278;50.784;4.630;2022-12-17T17:28:44;-0.10;99.90
26655;DHT22;14278;50.784;4.630;2022-12-17T17:31:11;-0.10;99.90
26655;DHT22;14278;50.784;4.630;2022-12-17T17:33:41;-0.20;99.90
26655;DHT22;14278;50.784;4.630;2022-12-17T17:36:10;-0.30;99.90
26655;DHT22;14278;50.784;4.630;2022-12-17T17:38:37;-0.50;99.90
26655;DHT22;14278;50.784;4.630;2022-12-17T17:41:05;-0.70;99.90
26655;DHT22;14278;50.784;4.630;2022-12-17T17:43:32;-0.70;99.90
26655;DHT22;14278;50.784;4.630;2022-12-17T17:46:16;-0.50;99.90
26655;DHT22;14278;50.784;4.630;2022-12-17T17:48:43;-0.40;99.90
26655;DHT22;14278;50.784;4.630;2022-12-17T17:51:17;-0.50;99.90
26655;DHT22;14278;50.784;4.630;2022-12-17T17:53:45;-0.60;99.90
26655;DHT22;14278;50.784;4.630;2022-12-17T17:56:13;-0.40;99.90
26655;DHT22;14278;50.784;4.630;2022-12-17T17:58:45;-0.50;99.90
26655;DHT22;14278;50.784;4.630;2022-12-17T18:01:14;-0.60;99.90
26655;DHT22;14278;50.784;4.630;2022-12-17T18:03:41;-0.50;99.90
26655;DHT22;14278;50.784;4.630;2022-12-17T18:06:08;-0.50;99.90
26655;DHT22;14278;50.784;4.630;2022-12-17T18:08:35;-0.40;99.90
26655;DHT22;14278;50.784;4.630;2022-12-17T18:11:03;-0.50;99.90
26655;DHT22;14278;50.784;4.630;2022-12-17T18:13:30;-1.30;99.90
26655;DHT22;14278;50.784;4.630;2022-12-17T18:16:15;-1.60;99.90
26655;DHT22;14278;50.784;4.630;2022-12-17T18:18:41;-1.50;99.90
26655;DHT22;14278;50.784;4.630;2022-12-17T18:21:13;-1.50;99.90
26655;DHT22;14278;50.784;4.630;2022-12-17T18:23:39;-1.50;99.90
26655;DHT22;14278;50.784;4.630;2022-12-17T18:26:11;-1.50;99.90
26655;DHT22;14278;50.784;4.630;2022-12-17T18:28:38;-1.60;99.90
26655;DHT22;14278;50.784;4.630;2022-12-17T18:31:25;-1.70;99.90